Login to view Products
 
Monday, March 01, 2021 (18:42 UTC)
Abu Dhabi International Airport
Last Updated: 01-Mar-2021 (18:41Z)
Wind Dir/Speed: NE at 06 kt
Temperature: 22.9°C
Rel. Humidity: 55 %
Pressure: 1014.8 hPa
Visibility: 10000 m
ACTUALS:
  • METAR OMAA 011800Z 05006KT CAVOK 23/14 Q1014 NOSIG
  • TAF OMAA 011700Z 0118/0300 07006KT CAVOK BECMG 0201/0203 16009KT PROB30 TEMPO 0204/0207 18015G25KT 4000 BLDU BECMG 0210/0212 26006KT BECMG 0212/0214 36008KT BECMG 0216/0218 07005KT=
D:\Input Parser\Destinations\Final\17\OMAAL18001700686864582.txt
1